Time;durP1;ratioP1;P1;durP2;ratioP2;P2;SDS_P1;SDS_P2;PMS_P1;PMS_P2;Temp;Humidity;BMP_temperature;BMP_pressure;BME280_temperature;BME280_humidity;BME280_pressure;Samples;Min_cycle;Max_cycle;Signal;HPM_P1;HPM_P2
2022/07/29 00:01:54;;;;;;;;;4.20;4.20;;;;;20.09;46.26;99874.03;5135986;27;8868;-61
2022/07/29 00:04:22;;;;;;;;;4.00;2.80;;;;;20.08;46.02;99877.75;5134881;27;8906;-64
2022/07/29 00:06:50;;;;;;;;;1.40;1.40;;;;;20.04;45.78;99874.53;5124195;27;8810;-61
2022/07/29 00:09:18;;;;;;;;;1.20;1.20;;;;;20.01;45.78;99868.69;5135802;27;8821;-61
2022/07/29 00:11:45;;;;;;;;;1.60;1.60;;;;;19.96;46.09;99868.38;5136296;27;8944;-61
2022/07/29 00:14:13;;;;;;;;;4.00;3.60;;;;;19.94;45.85;99867.72;5122505;27;8903;-61
2022/07/29 00:16:41;;;;;;;;;2.00;2.00;;;;;19.93;46.18;99864.19;5115734;28;8835;-61
2022/07/29 00:19:09;;;;;;;;;2.80;2.40;;;;;19.91;46.49;99862.66;5115786;28;8954;-62
2022/07/29 00:21:37;;;;;;;;;2.00;2.00;;;;;19.90;46.01;99864.56;5116784;27;8838;-62
2022/07/29 00:24:05;;;;;;;;;1.60;1.20;;;;;19.88;46.53;99854.94;5133746;27;8924;-61
2022/07/29 00:26:33;;;;;;;;;4.00;4.00;;;;;19.83;46.18;99852.78;5136096;27;8926;-61
2022/07/29 00:29:00;;;;;;;;;2.40;2.00;;;;;19.85;46.36;99856.16;5134050;27;8814;-61
2022/07/29 00:31:48;;;;;;;;;2.20;2.20;;;;;19.84;46.08;99849.06;5135954;27;8878;-61
2022/07/29 00:36:58;;;;;;;;;2.20;2.20;;;;;19.81;46.35;99838.59;5131380;28;8946;-62
2022/07/29 00:39:25;;;;;;;;;3.40;3.40;;;;;19.79;46.08;99840.66;5121572;27;8952;-61
2022/07/29 00:41:53;;;;;;;;;2.00;2.00;;;;;19.75;46.78;99842.06;5115449;28;8838;-62
2022/07/29 00:44:21;;;;;;;;;1.20;1.20;;;;;19.74;46.58;99843.09;5115065;28;8870;-64
2022/07/29 00:46:49;;;;;;;;;2.00;2.00;;;;;19.72;46.59;99834.28;5116073;28;8938;-60
2022/07/29 00:49:17;;;;;;;;;2.80;2.80;;;;;19.71;46.51;99829.91;5114700;27;8828;-62
2022/07/29 00:51:45;;;;;;;;;3.60;3.60;;;;;19.71;46.69;99829.91;5130697;27;8806;-61
2022/07/29 00:54:13;;;;;;;;;4.00;4.00;;;;;19.69;46.89;99823.88;5135711;27;8814;-61
2022/07/29 00:56:41;;;;;;;;;4.00;4.00;;;;;19.65;46.95;99816.31;5140302;27;8817;-61
2022/07/29 00:59:09;;;;;;;;;2.00;2.00;;;;;19.61;47.24;99813.13;5123184;27;8812;-61
2022/07/29 01:01:36;;;;;;;;;5.20;3.00;;;;;19.58;46.99;99816.19;5119648;28;8978;-61
2022/07/29 01:04:04;;;;;;;;;3.60;2.40;;;;;19.53;47.33;99815.91;5118842;27;8946;-61
2022/07/29 01:06:33;;;;;;;;;4.40;4.00;;;;;19.47;47.16;99808.53;5119603;28;8844;-61
2022/07/29 01:09:01;;;;;;;;;4.00;4.00;;;;;19.42;47.20;99810.91;5127528;27;8958;-62
2022/07/29 01:11:29;;;;;;;;;4.60;2.40;;;;;19.37;47.66;99802.53;5114163;27;8974;-64
2022/07/29 01:13:57;;;;;;;;;4.00;2.40;;;;;19.34;47.14;99808.28;5123354;27;8823;-61
2022/07/29 01:16:25;;;;;;;;;2.20;1.40;;;;;19.31;47.73;99797.84;5118817;28;8820;-61
2022/07/29 01:18:52;;;;;;;;;3.00;2.80;;;;;19.29;47.65;99805.31;5131740;27;8821;-61
2022/07/29 01:21:20;;;;;;;;;3.60;2.40;;;;;19.25;47.44;99798.56;5139996;27;9001;-61
2022/07/29 01:23:48;;;;;;;;;2.20;2.20;;;;;19.22;47.84;99792.69;5138946;27;8944;-63
2022/07/29 01:26:16;;;;;;;;;1.00;1.00;;;;;19.20;47.74;99800.97;5122810;27;8827;-61
2022/07/29 01:28:47;;;;;;;;;2.20;2.20;;;;;19.20;47.89;99794.75;5123287;27;8811;-61
2022/07/29 01:31:14;;;;;;;;;4.60;4.00;;;;;19.19;47.80;99787.63;5118941;28;8986;-62
2022/07/29 01:33:52;;;;;;;;;3.20;3.00;;;;;19.18;47.95;99780.56;5105596;28;8834;-62
2022/07/29 01:36:20;;;;;;;;;2.80;2.80;;;;;19.16;47.61;99783.41;5098161;28;9503;-62
2022/07/29 01:38:48;;;;;;;;;3.00;2.80;;;;;19.16;48.17;99788.81;5102915;28;8828;-62
2022/07/29 01:41:16;;;;;;;;;2.20;2.20;;;;;19.15;48.24;99783.59;5117956;28;8820;-61
2022/07/29 01:43:43;;;;;;;;;3.00;3.00;;;;;19.12;47.98;99787.50;5106589;28;8947;-61
2022/07/29 01:46:11;;;;;;;;;3.20;2.80;;;;;19.10;48.33;99781.44;5097881;28;8834;-62
2022/07/29 01:48:39;;;;;;;;;3.20;3.00;;;;;19.09;48.33;99781.59;5098479;28;8822;-62
2022/07/29 01:51:07;;;;;;;;;5.80;4.00;;;;;19.07;48.06;99771.00;5108906;28;8828;-62
2022/07/29 01:53:35;;;;;;;;;4.00;4.00;;;;;19.07;47.85;99779.09;5107446;28;8838;-62
2022/07/29 01:56:04;;;;;;;;;3.40;3.00;;;;;19.03;48.36;99772.38;5097967;28;8844;-61
2022/07/29 01:58:32;;;;;;;;;3.80;3.40;;;;;18.98;48.30;99766.66;5113280;28;8836;-62
2022/07/29 02:01:00;;;;;;;;;4.00;3.60;;;;;18.90;48.26;99769.41;5097984;28;9743;-61
2022/07/29 02:03:28;;;;;;;;;2.80;2.80;;;;;18.80;48.34;99768.81;5097787;28;8822;-62
2022/07/29 02:05:55;;;;;;;;;5.80;4.00;;;;;18.71;48.66;99761.81;5096669;28;8844;-63
2022/07/29 02:08:23;;;;;;;;;5.20;4.00;;;;;18.62;48.73;99773.66;5097370;28;8818;-62
2022/07/29 02:10:51;;;;;;;;;4.00;3.20;;;;;18.54;48.80;99772.84;5105443;28;8952;-62
2022/07/29 02:13:19;;;;;;;;;4.80;4.40;;;;;18.47;49.43;99779.97;5106106;28;8851;-61
2022/07/29 02:15:47;;;;;;;;;3.00;3.00;;;;;18.41;49.56;99776.13;5099465;28;8815;-61
2022/07/29 02:18:24;;;;;;;;;4.80;4.80;;;;;18.37;49.65;99765.88;5097776;28;8891;-62
2022/07/29 02:20:51;;;;;;;;;3.80;3.80;;;;;18.33;49.33;99769.91;5098091;28;8908;-61
2022/07/29 02:23:19;;;;;;;;;3.00;3.00;;;;;18.31;49.67;99764.72;5097510;28;8859;-62
2022/07/29 02:25:47;;;;;;;;;3.00;3.00;;;;;18.29;49.60;99761.31;5097358;28;8840;-62
2022/07/29 02:28:16;;;;;;;;;3.00;3.00;;;;;18.30;49.59;99760.31;5098700;28;8837;-62
2022/07/29 02:30:43;;;;;;;;;4.80;4.00;;;;;18.32;49.57;99757.47;5097222;28;8935;-61
2022/07/29 02:33:11;;;;;;;;;3.00;3.00;;;;;18.35;49.42;99746.31;5098130;28;9021;-62
2022/07/29 02:35:39;;;;;;;;;5.20;4.00;;;;;18.40;49.47;99752.88;5096586;28;8814;-62
2022/07/29 02:40:52;;;;;;;;;3.40;3.40;;;;;18.52;48.89;99756.03;5113044;28;8830;-61
2022/07/29 02:43:21;;;;;;;;;3.00;3.00;;;;;18.56;48.84;99750.09;5107906;28;8826;-62
2022/07/29 02:45:48;;;;;;;;;5.20;4.00;;;;;18.53;49.01;99755.00;5116884;28;8843;-62
2022/07/29 02:48:18;;;;;;;;;5.20;4.40;;;;;18.42;49.59;99758.94;5117204;28;8835;-62
2022/07/29 02:50:46;;;;;;;;;4.00;4.00;;;;;18.31;49.36;99753.94;5114740;28;9507;-61
2022/07/29 02:53:14;;;;;;;;;3.20;3.20;;;;;18.20;49.83;99759.66;5100525;28;8830;-61
2022/07/29 02:55:41;;;;;;;;;4.00;4.00;;;;;18.09;50.00;99751.13;5106637;28;8823;-62
2022/07/29 02:58:11;;;;;;;;;3.00;3.00;;;;;18.01;50.14;99760.09;5097597;28;8853;-62
2022/07/29 03:00:39;;;;;;;;;4.00;4.00;;;;;17.92;50.71;99754.91;5116235;28;8832;-62
2022/07/29 03:03:07;;;;;;;;;3.20;3.20;;;;;17.86;50.65;99745.66;5116498;28;8963;-62
2022/07/29 03:05:34;;;;;;;;;5.40;4.80;;;;;17.84;50.77;99753.03;5116095;28;9616;-62
2022/07/29 03:08:04;;;;;;;;;6.00;4.80;;;;;17.83;50.83;99753.25;5117318;28;8831;-62
2022/07/29 03:10:32;;;;;;;;;5.60;4.60;;;;;17.83;50.97;99743.28;5116918;28;8824;-62
2022/07/29 03:13:03;;;;;;;;;3.20;3.20;;;;;17.83;50.87;99742.47;5101755;28;8842;-62
2022/07/29 03:15:30;;;;;;;;;3.60;3.60;;;;;17.83;51.21;99734.38;5109457;28;9064;-63
2022/07/29 03:17:58;;;;;;;;;6.00;6.00;;;;;17.79;51.24;99744.66;5098361;28;8824;-61
2022/07/29 03:20:26;;;;;;;;;3.80;3.40;;;;;17.77;51.41;99741.28;5112616;28;8816;-62
2022/07/29 03:22:54;;;;;;;;;3.80;3.80;;;;;17.76;51.49;99747.69;5096230;28;8826;-63
2022/07/29 03:25:22;;;;;;;;;7.00;6.60;;;;;17.76;51.49;99746.84;5096538;28;8834;-63
2022/07/29 03:27:49;;;;;;;;;3.00;3.00;;;;;17.75;51.58;99746.00;5096170;28;8962;-62
2022/07/29 03:30:17;;;;;;;;;6.20;4.80;;;;;17.76;51.29;99736.09;5113013;28;9608;-62
2022/07/29 03:32:48;;;;;;;;;4.00;4.00;;;;;17.77;51.11;99737.75;5108504;28;8830;-62
2022/07/29 03:35:19;;;;;;;;;3.00;3.00;;;;;17.78;51.52;99736.75;5096581;28;8849;-62
2022/07/29 03:37:47;;;;;;;;;4.20;3.80;;;;;17.78;51.21;99734.88;5105091;28;8938;-61
2022/07/29 03:40:15;;;;;;;;;6.00;4.00;;;;;17.80;51.11;99724.78;5115924;28;8820;-61
2022/07/29 03:42:43;;;;;;;;;4.00;3.00;;;;;17.80;51.05;99727.47;5114738;28;8854;-61
2022/07/29 03:45:10;;;;;;;;;4.00;4.00;;;;;17.81;51.51;99734.53;5116101;28;8967;-61
2022/07/29 03:47:38;;;;;;;;;6.00;4.80;;;;;17.82;51.71;99720.06;5116400;28;8832;-62
2022/07/29 03:50:19;;;;;;;;;4.00;3.40;;;;;17.82;51.54;99714.66;5113860;28;8849;-61
2022/07/29 03:52:46;;;;;;;;;3.20;3.00;;;;;17.81;51.63;99713.00;5097053;28;8944;-62
2022/07/29 03:55:14;;;;;;;;;4.00;4.00;;;;;17.77;51.45;99708.94;5096590;28;8822;-62
2022/07/29 03:57:42;;;;;;;;;3.00;3.00;;;;;17.74;51.97;99709.31;5093969;28;9577;-64
2022/07/29 04:00:10;;;;;;;;;4.40;4.00;;;;;17.72;51.52;99714.03;5110888;28;8836;-62
2022/07/29 04:02:38;;;;;;;;;3.00;3.00;;;;;17.69;52.08;99705.47;5115161;28;9664;-63
2022/07/29 04:05:05;;;;;;;;;4.00;4.00;;;;;17.68;51.99;99710.00;5104836;28;8940;-62
2022/07/29 04:07:33;;;;;;;;;3.40;3.40;;;;;17.66;51.84;99720.09;5095334;28;8960;-62
2022/07/29 04:10:00;;;;;;;;;3.80;3.80;;;;;17.64;51.82;99727.53;5095399;28;8802;-61
2022/07/29 04:12:28;;;;;;;;;6.00;6.00;;;;;17.62;51.96;99726.84;5097493;28;8822;-63
2022/07/29 04:14:57;;;;;;;;;6.00;4.80;;;;;17.62;52.19;99726.84;5115451;28;8804;-62
2022/07/29 04:17:25;;;;;;;;;4.00;4.00;;;;;17.62;52.33;99729.53;5114956;28;9675;-62
2022/07/29 04:19:52;;;;;;;;;5.60;5.60;;;;;17.62;51.98;99728.69;5115650;28;8832;-61
2022/07/29 04:22:20;;;;;;;;;5.20;5.20;;;;;17.60;51.88;99726.16;5112167;28;8954;-61
2022/07/29 04:24:49;;;;;;;;;3.80;3.00;;;;;17.60;51.65;99730.75;5114555;28;8915;-62
2022/07/29 04:27:17;;;;;;;;;4.00;4.00;;;;;17.61;51.88;99727.84;5114931;28;8922;-62
2022/07/29 04:29:45;;;;;;;;;6.00;6.00;;;;;17.62;52.40;99726.84;5101052;28;8842;-62
2022/07/29 04:32:23;;;;;;;;;4.40;4.00;;;;;17.64;51.75;99732.91;5094189;28;8841;-62
2022/07/29 04:34:51;;;;;;;;;6.00;6.00;;;;;17.63;51.87;99733.91;5102513;28;8816;-63
2022/07/29 04:37:19;;;;;;;;;3.60;3.60;;;;;17.61;52.36;99722.47;5112301;28;8844;-62
2022/07/29 04:39:47;;;;;;;;;5.20;4.40;;;;;17.60;52.31;99731.56;5100857;28;8839;-62
2022/07/29 04:42:14;;;;;;;;;5.60;5.60;;;;;17.60;51.86;99742.34;5112734;28;8835;-62
2022/07/29 04:44:43;;;;;;;;;3.00;3.00;;;;;17.63;52.65;99741.97;5104359;28;8900;-61
2022/07/29 04:47:12;;;;;;;;;5.20;4.00;;;;;17.65;51.81;99739.13;5113998;28;9008;-63
2022/07/29 04:49:40;;;;;;;;;4.00;3.80;;;;;17.66;51.99;99747.03;5111533;28;8846;-62
2022/07/29 04:52:07;;;;;;;;;5.20;5.20;;;;;17.68;52.41;99754.97;5105518;28;8823;-62
2022/07/29 04:54:35;;;;;;;;;6.00;6.00;;;;;17.65;52.30;99766.91;5107605;28;8838;-62
2022/07/29 04:57:03;;;;;;;;;5.20;4.40;;;;;17.59;52.71;99781.06;5110972;28;8824;-62
2022/07/29 04:59:31;;;;;;;;;6.60;6.00;;;;;17.54;52.70;99786.09;5094025;28;8868;-61
2022/07/29 05:01:59;;;;;;;;;4.60;4.00;;;;;17.51;52.95;99785.59;5094418;28;8842;-63
2022/07/29 05:04:26;;;;;;;;;6.00;6.00;;;;;17.51;52.74;99797.22;5094992;28;8842;-62
2022/07/29 05:06:55;;;;;;;;;4.00;4.00;;;;;17.54;52.56;99796.03;5094743;28;8996;-62
2022/07/29 05:09:23;;;;;;;;;6.00;6.00;;;;;17.57;53.10;99795.69;5094877;28;8907;-65
2022/07/29 05:11:51;;;;;;;;;3.25;3.25;;;;;17.60;52.92;99803.44;5094096;28;8828;-61
2022/07/29 05:14:19;;;;;;;;;4.00;4.00;;;;;17.64;52.45;99796.69;5093476;28;8966;-62
2022/07/29 05:16:49;;;;;;;;;4.00;4.00;;;;;17.70;52.88;99787.94;5094753;28;8826;-63
2022/07/29 05:19:16;;;;;;;;;3.00;3.00;;;;;17.77;52.44;99791.63;5093255;28;8930;-64
2022/07/29 05:21:45;;;;;;;;;4.40;3.00;;;;;17.84;52.15;99781.84;5093405;28;8830;-62
2022/07/29 05:24:12;;;;;;;;;5.20;4.00;;;;;17.94;52.21;99785.19;5095503;28;8952;-62
2022/07/29 05:26:42;;;;;;;;;4.00;3.00;;;;;18.06;52.08;99803.50;5094279;28;8848;-62
2022/07/29 05:29:10;;;;;;;;;4.40;4.20;;;;;18.14;51.92;99811.56;5101480;28;8823;-62
2022/07/29 05:31:58;;;;;;;;;3.00;3.00;;;;;18.25;51.51;99808.53;5097560;28;9514;-62
2022/07/29 05:34:26;;;;;;;;;6.00;5.60;;;;;18.37;51.19;99817.94;5094729;28;8822;-62
2022/07/29 05:36:54;;;;;;;;;5.60;4.80;;;;;18.47;51.17;99813.19;5093635;28;8848;-62
2022/07/29 05:39:22;;;;;;;;;3.60;3.60;;;;;18.56;51.21;99812.13;5096285;28;8841;-62
2022/07/29 05:42:09;;;;;;;;;3.00;3.00;;;;;18.71;50.95;99806.81;5116565;28;8966;-61
2022/07/29 05:44:38;;;;;;;;;6.00;6.00;;;;;18.83;50.63;99811.63;5117893;28;8820;-62
2022/07/29 05:47:06;;;;;;;;;4.40;4.00;;;;;18.93;50.48;99828.47;5114324;28;8904;-62
2022/07/29 05:49:34;;;;;;;;;3.00;3.00;;;;;19.01;50.30;99827.56;5096636;28;8822;-62
2022/07/29 05:52:01;;;;;;;;;3.00;3.00;;;;;19.09;50.59;99824.81;5110528;28;8871;-61
2022/07/29 05:54:30;;;;;;;;;3.00;3.00;;;;;19.11;50.65;99845.22;5117561;28;8931;-62
2022/07/29 05:56:58;;;;;;;;;3.60;3.60;;;;;19.08;50.24;99850.13;5102199;28;8834;-62
2022/07/29 05:59:26;;;;;;;;;5.40;5.40;;;;;19.03;50.30;99836.34;5115750;28;8887;-62
2022/07/29 06:01:57;;;;;;;;;1.20;1.20;;;;;19.02;50.89;99834.63;5116094;28;8856;-63
2022/07/29 06:04:25;;;;;;;;;3.00;3.00;;;;;19.02;50.78;99848.13;5110346;28;8854;-63
2022/07/29 06:06:53;;;;;;;;;3.00;3.00;;;;;19.04;50.13;99851.50;5096089;28;8873;-62
2022/07/29 06:09:21;;;;;;;;;3.00;3.00;;;;;19.05;50.50;99861.28;5095468;28;8853;-62
2022/07/29 06:11:50;;;;;;;;;1.00;1.00;;;;;19.07;50.34;99864.66;5095585;28;8836;-62
2022/07/29 06:14:17;;;;;;;;;3.00;2.40;;;;;19.06;50.60;99857.56;5096207;28;8952;-63
2022/07/29 06:16:46;;;;;;;;;4.00;3.80;;;;;19.05;50.88;99861.28;5095393;28;8838;-62
2022/07/29 06:19:14;;;;;;;;;1.00;1.00;;;;;19.05;50.57;99870.22;5095625;28;8846;-63
2022/07/29 06:21:42;;;;;;;;;3.00;3.00;;;;;19.05;50.43;99867.50;5103426;28;8827;-63
2022/07/29 06:24:10;;;;;;;;;2.20;2.20;;;;;19.06;50.47;99866.50;5114310;28;8824;-62
2022/07/29 06:26:38;;;;;;;;;2.00;2.00;;;;;19.06;50.84;99857.56;5114525;28;8958;-62
2022/07/29 06:29:06;;;;;;;;;3.00;3.00;;;;;19.06;50.59;99869.19;5096243;28;8850;-62
2022/07/29 06:31:34;;;;;;;;;3.80;3.80;;;;;19.07;50.14;99856.53;5112959;28;8956;-61
2022/07/29 06:34:01;;;;;;;;;2.40;2.40;;;;;19.04;50.26;99857.72;5123054;27;8836;-63
2022/07/29 06:36:31;;;;;;;;;1.60;1.60;;;;;19.05;50.51;99861.28;5119998;27;8808;-62
2022/07/29 06:38:59;;;;;;;;;4.00;3.00;;;;;19.03;50.53;99861.47;5116489;27;8938;-62
2022/07/29 06:41:29;;;;;;;;;3.40;3.00;;;;;19.03;50.76;99861.47;5116470;28;8921;-63
2022/07/29 06:43:57;;;;;;;;;1.40;1.00;;;;;19.05;50.41;99861.28;5117002;27;8836;-63
2022/07/29 06:46:24;;;;;;;;;4.00;4.00;;;;;19.09;50.36;99857.19;5116534;27;8894;-62
2022/07/29 06:48:52;;;;;;;;;3.40;3.00;;;;;19.10;50.74;99853.47;5117831;27;8878;-63
2022/07/29 06:51:20;;;;;;;;;1.00;1.00;;;;;19.08;50.90;99850.13;5121563;27;8839;-62
2022/07/29 06:53:50;;;;;;;;;3.00;3.00;;;;;19.09;50.68;99852.66;5097509;27;8828;-62
2022/07/29 06:56:29;;;;;;;;;1.00;1.00;;;;;19.15;50.60;99851.94;5116816;28;8828;-62
2022/07/29 06:58:57;;;;;;;;;4.80;4.00;;;;;19.22;50.12;99858.34;5118929;27;9004;-63
2022/07/29 07:01:25;;;;;;;;;3.80;3.80;;;;;19.31;49.98;99851.88;5136800;27;8857;-63
2022/07/29 07:03:53;;;;;;;;;3.00;1.00;;;;;19.43;49.78;99847.72;5135646;27;8832;-62
2022/07/29 07:06:20;;;;;;;;;3.00;3.00;;;;;19.57;49.36;99852.31;5136456;27;8880;-66
2022/07/29 07:08:49;;;;;;;;;2.80;1.40;;;;;19.70;49.34;99857.97;5135734;27;8813;-62
2022/07/29 07:11:17;;;;;;;;;4.60;4.00;;;;;19.82;48.89;99861.94;5133300;27;8836;-63
2022/07/29 07:13:45;;;;;;;;;2.80;2.20;;;;;19.94;49.16;99854.22;5135202;27;8853;-63
2022/07/29 07:16:12;;;;;;;;;1.00;1.00;;;;;20.05;48.84;99857.34;5133661;27;8889;-62
2022/07/29 07:18:41;;;;;;;;;4.20;3.60;;;;;20.19;48.95;99856.50;5135552;27;9475;-62
2022/07/29 07:21:09;;;;;;;;;2.40;2.40;;;;;20.30;48.12;99856.06;5123797;27;8830;-62
2022/07/29 07:23:37;;;;;;;;;4.00;2.00;;;;;20.41;48.18;99844.75;5114924;27;8869;-63
2022/07/29 07:26:05;;;;;;;;;3.20;3.20;;;;;20.55;48.13;99848.50;5115246;28;8948;-63
2022/07/29 07:28:33;;;;;;;;;5.80;4.00;;;;;20.65;47.79;99849.03;5114314;27;8970;-62
2022/07/29 07:31:00;;;;;;;;;4.00;4.00;;;;;20.72;47.59;99840.00;5132953;27;9000;-63
2022/07/29 07:33:28;;;;;;;;;4.00;4.00;;;;;20.79;47.77;99846.31;5135594;27;8826;-63
2022/07/29 07:35:56;;;;;;;;;4.00;4.00;;;;;20.88;47.74;99849.78;5134700;27;8814;-62
2022/07/29 07:38:23;;;;;;;;;4.00;3.60;;;;;20.95;47.56;99846.16;5134840;27;8813;-63
2022/07/29 07:40:51;;;;;;;;;4.80;4.80;;;;;21.07;47.40;99839.19;5134540;27;8829;-63
2022/07/29 07:43:19;;;;;;;;;2.00;2.00;;;;;21.17;47.15;99840.56;5134563;27;8825;-63
2022/07/29 07:45:47;;;;;;;;;2.00;2.00;;;;;21.30;47.36;99824.44;5134726;27;8830;-63
2022/07/29 07:48:15;;;;;;;;;4.20;4.00;;;;;21.43;46.98;99827.31;5131042;27;8983;-66
2022/07/29 07:50:43;;;;;;;;;2.00;2.00;;;;;21.58;46.77;99829.94;5132113;27;8818;-62
2022/07/29 07:53:11;;;;;;;;;2.80;2.80;;;;;21.78;46.47;99828.25;5116188;27;8823;-63
2022/07/29 07:55:39;;;;;;;;;4.40;4.40;;;;;22.07;46.36;99825.34;5113001;28;8954;-62
2022/07/29 07:58:27;;;;;;;;;4.00;2.80;;;;;22.38;45.63;99829.31;5112651;28;8851;-62
2022/07/29 08:00:54;;;;;;;;;4.20;4.20;;;;;22.58;44.79;99830.31;5132214;27;8988;-63
2022/07/29 08:03:22;;;;;;;;;4.00;4.00;;;;;22.76;44.67;99836.00;5128487;27;8827;-62
2022/07/29 08:05:50;;;;;;;;;2.80;2.80;;;;;22.88;44.58;99830.84;5115239;27;9757;-62
2022/07/29 08:08:18;;;;;;;;;4.40;4.00;;;;;22.96;44.62;99830.66;5114747;28;8936;-62
2022/07/29 08:10:56;;;;;;;;;1.40;1.40;;;;;23.02;44.86;99830.69;5114635;28;8835;-62
2022/07/29 08:13:24;;;;;;;;;4.20;4.20;;;;;23.04;44.75;99827.75;5114928;28;8832;-62
2022/07/29 08:15:59;;;;;;;;;4.00;4.00;;;;;23.05;44.46;99835.72;5114248;28;8816;-62
2022/07/29 08:18:27;;;;;;;;;4.20;4.20;;;;;23.15;44.49;99830.75;5129201;27;8821;-62
2022/07/29 08:20:55;;;;;;;;;4.00;4.00;;;;;23.32;44.22;99832.06;5133197;27;8856;-61
2022/07/29 08:23:22;;;;;;;;;5.00;5.00;;;;;23.60;43.78;99829.19;5131782;27;8825;-62
2022/07/29 08:25:53;;;;;;;;;4.00;4.00;;;;;23.85;43.82;99833.78;5114134;28;8920;-62
2022/07/29 08:28:21;;;;;;;;;3.80;3.80;;;;;23.99;43.65;99826.47;5123844;27;8948;-62
2022/07/29 08:30:52;;;;;;;;;4.40;4.40;;;;;24.04;43.45;99837.59;5134739;27;8838;-61
2022/07/29 08:33:20;;;;;;;;;5.00;4.00;;;;;24.14;43.00;99838.84;5134389;27;8829;-61
2022/07/29 08:35:49;;;;;;;;;4.00;4.00;;;;;24.31;42.66;99841.94;5124416;27;9866;-62
2022/07/29 08:38:17;;;;;;;;;3.00;2.40;;;;;24.40;42.64;99833.34;5114600;28;8979;-62
2022/07/29 08:40:45;;;;;;;;;2.40;2.40;;;;;24.51;42.88;99829.13;5114069;27;9543;-62
2022/07/29 08:43:13;;;;;;;;;4.80;4.80;;;;;24.60;42.62;99834.16;5115063;27;8851;-61
2022/07/29 08:45:41;;;;;;;;;4.20;2.40;;;;;24.75;42.98;99832.00;5113762;28;8957;-61
2022/07/29 08:48:14;;;;;;;;;5.00;3.20;;;;;25.02;42.00;99827.28;5113969;28;8847;-62
2022/07/29 08:50:42;;;;;;;;;5.00;5.00;;;;;25.20;42.16;99819.22;5116589;27;8832;-61
2022/07/29 08:53:13;;;;;;;;;3.00;3.00;;;;;25.20;41.93;99830.13;5131143;27;8879;-62
2022/07/29 08:55:41;;;;;;;;;5.40;5.40;;;;;25.18;42.10;99829.50;5116975;28;9449;-62
2022/07/29 08:58:10;;;;;;;;;5.00;5.00;;;;;25.18;41.74;99829.50;5121055;27;8810;-63
2022/07/29 09:00:41;;;;;;;;;3.00;3.00;;;;;25.21;41.88;99834.50;5133719;27;8838;-67
2022/07/29 09:03:11;;;;;;;;;3.00;3.00;;;;;25.25;42.45;99833.06;5133838;27;8842;-62
2022/07/29 09:05:39;;;;;;;;;6.00;5.40;;;;;25.34;41.83;99831.75;5130907;27;8840;-63
2022/07/29 09:08:12;;;;;;;;;3.00;3.00;;;;;25.47;42.02;99815.31;5133358;27;8876;-62
2022/07/29 09:10:40;;;;;;;;;5.00;4.20;;;;;25.65;41.71;99811.56;5132745;27;9498;-62
2022/07/29 09:13:08;;;;;;;;;5.20;3.40;;;;;25.92;40.83;99807.63;5130654;27;8828;-62
2022/07/29 09:15:36;;;;;;;;;5.60;5.20;;;;;26.20;41.10;99807.97;5129845;27;8936;-62
2022/07/29 09:18:04;;;;;;;;;3.80;3.80;;;;;26.37;40.47;99814.53;5117465;27;8827;-62
2022/07/29 09:23:13;;;;;;;;;6.00;6.00;;;;;26.32;40.75;99803.44;5116890;28;8871;-62
2022/07/29 09:25:51;;;;;;;;;3.80;3.80;;;;;26.26;41.08;99812.53;5133322;27;8818;-62
2022/07/29 09:28:19;;;;;;;;;5.00;4.20;;;;;26.22;41.47;99811.31;5124930;27;8825;-62
2022/07/29 09:30:46;;;;;;;;;5.00;5.00;;;;;26.25;40.99;99810.84;5136972;27;8945;-62
2022/07/29 09:33:14;;;;;;;;;3.20;3.20;;;;;26.30;41.02;99813.75;5137707;27;8810;-62
2022/07/29 09:35:42;;;;;;;;;4.20;4.20;;;;;26.30;41.71;99819.22;5137790;27;8829;-62
2022/07/29 09:38:23;;;;;;;;;3.00;3.00;;;;;26.34;40.92;99823.16;5120212;27;8838;-62
2022/07/29 09:40:51;;;;;;;;;4.40;4.40;;;;;26.41;40.90;99826.66;5117307;28;8839;-63
2022/07/29 09:43:19;;;;;;;;;5.80;5.80;;;;;26.51;40.68;99826.13;5117293;28;8844;-62
2022/07/29 09:45:47;;;;;;;;;2.60;2.60;;;;;26.57;41.03;99820.63;5116988;28;8819;-62
2022/07/29 09:48:15;;;;;;;;;5.20;5.20;;;;;26.64;40.32;99818.66;5117432;28;8920;-62
2022/07/29 09:50:43;;;;;;;;;6.00;6.00;;;;;26.87;39.93;99818.78;5132814;27;8834;-63
2022/07/29 09:53:11;;;;;;;;;4.00;4.00;;;;;27.43;39.64;99821.19;5132395;27;8836;-63
2022/07/29 09:55:39;;;;;;;;;6.20;5.60;;;;;27.98;38.80;99820.75;5120002;27;8819;-62
2022/07/29 09:58:07;;;;;;;;;5.60;5.60;;;;;28.20;38.13;99821.00;5122571;27;8896;-63
2022/07/29 10:00:35;;;;;;;;;4.00;4.00;;;;;28.15;38.39;99815.41;5115387;28;8886;-63
2022/07/29 10:03:02;;;;;;;;;5.60;4.40;;;;;27.98;38.43;99809.81;5116365;28;8930;-62
2022/07/29 10:05:30;;;;;;;;;4.80;4.00;;;;;27.80;39.30;99807.19;5116376;28;8826;-63
2022/07/29 10:08:03;;;;;;;;;4.00;4.00;;;;;27.65;39.76;99798.56;5117362;27;8848;-62
2022/07/29 10:10:31;;;;;;;;;4.00;4.00;;;;;27.55;39.42;99802.94;5115933;27;8882;-63
2022/07/29 10:12:59;;;;;;;;;6.00;6.00;;;;;27.45;40.11;99798.03;5117426;28;9864;-62
2022/07/29 10:15:36;;;;;;;;;1.20;1.20;;;;;27.41;39.75;99795.97;5116507;28;8823;-63
2022/07/29 10:18:04;;;;;;;;;3.60;3.60;;;;;27.45;40.24;99800.75;5136660;27;8894;-62
2022/07/29 10:20:32;;;;;;;;;3.80;3.60;;;;;27.40;39.51;99803.34;5134997;27;9525;-62
2022/07/29 10:23:00;;;;;;;;;3.80;3.80;;;;;27.38;39.75;99805.50;5135984;27;8821;-63
2022/07/29 10:25:28;;;;;;;;;5.20;4.80;;;;;27.32;40.00;99806.41;5124601;27;8810;-62
2022/07/29 10:27:56;;;;;;;;;4.00;4.00;;;;;27.31;39.81;99796.53;5128762;27;8829;-62
2022/07/29 10:30:23;;;;;;;;;6.40;5.60;;;;;27.24;40.22;99798.53;5121747;27;9658;-62
2022/07/29 10:32:51;;;;;;;;;2.60;2.60;;;;;27.16;39.92;99795.31;5110674;28;8849;-62
2022/07/29 10:35:20;;;;;;;;;3.20;3.00;;;;;27.03;40.37;99796.28;5095648;28;8838;-62
2022/07/29 10:37:48;;;;;;;;;3.80;3.80;;;;;26.90;40.42;99799.22;5095370;28;9593;-62
2022/07/29 10:43:02;;;;;;;;;5.80;4.80;;;;;26.51;41.15;99802.41;5084599;28;8881;-62
2022/07/29 10:45:30;;;;;;;;;7.60;6.40;;;;;26.31;41.40;99798.19;5114706;28;8859;-62
2022/07/29 10:47:59;;;;;;;;;4.00;4.00;;;;;26.12;41.90;99805.50;5097373;28;8870;-62
2022/07/29 10:50:26;;;;;;;;;3.80;3.80;;;;;25.95;41.73;99803.59;5114891;28;8831;-61
2022/07/29 10:52:56;;;;;;;;;6.20;5.60;;;;;25.77;42.05;99812.53;5103257;28;8812;-63
2022/07/29 10:55:23;;;;;;;;;5.20;5.20;;;;;25.62;42.49;99815.81;5115174;28;8954;-62
2022/07/29 10:57:53;;;;;;;;;1.60;1.60;;;;;25.45;42.31;99815.50;5101974;28;8944;-62
2022/07/29 11:00:24;;;;;;;;;4.60;4.20;;;;;25.33;42.28;99816.44;5093318;28;8942;-63
2022/07/29 11:02:54;;;;;;;;;5.00;5.00;;;;;25.21;43.07;99816.28;5093812;28;8845;-63
2022/07/29 11:05:26;;;;;;;;;5.00;5.00;;;;;25.14;43.19;99820.94;5093565;28;8833;-63
2022/07/29 11:08:07;;;;;;;;;6.00;6.00;;;;;25.07;42.67;99811.09;5093170;28;8826;-61
2022/07/29 11:10:46;;;;;;;;;6.80;6.80;;;;;25.02;43.03;99828.09;5111294;28;9443;-62
2022/07/29 11:13:15;;;;;;;;;8.00;7.60;;;;;24.97;43.21;99821.63;5114109;28;8966;-62
2022/07/29 11:15:43;;;;;;;;;7.00;7.00;;;;;24.94;43.26;99825.63;5114199;28;8840;-62
2022/07/29 11:18:13;;;;;;;;;4.60;4.60;;;;;24.98;42.92;99815.13;5114541;28;8820;-63
2022/07/29 11:20:44;;;;;;;;;7.80;6.80;;;;;25.03;43.56;99823.50;5114173;28;8850;-62
2022/07/29 11:23:12;;;;;;;;;7.80;7.40;;;;;25.11;42.53;99820.53;5114884;28;8847;-64
2022/07/29 11:25:40;;;;;;;;;6.80;6.00;;;;;25.22;43.35;99823.44;5113973;28;8974;-62
2022/07/29 11:28:18;;;;;;;;;8.00;7.80;;;;;25.34;42.53;99823.56;5107108;28;8826;-62
2022/07/29 11:30:51;;;;;;;;;6.60;6.60;;;;;25.46;42.50;99811.72;5108533;28;8856;-62
2022/07/29 11:33:19;;;;;;;;;7.00;6.00;;;;;25.58;42.03;99818.16;5123188;27;8833;-62
2022/07/29 11:36:07;;;;;;;;;6.60;6.40;;;;;25.76;41.94;99816.34;5134770;27;8854;-62
2022/07/29 11:38:43;;;;;;;;;6.00;6.00;;;;;26.02;41.70;99816.13;5133710;27;8967;-62
2022/07/29 11:41:11;;;;;;;;;8.20;8.20;;;;;26.32;41.03;99813.50;5133108;27;9483;-62
2022/07/29 11:43:38;;;;;;;;;7.00;7.00;;;;;26.71;40.78;99808.47;5134498;27;8826;-63
2022/07/29 11:46:08;;;;;;;;;6.00;5.40;;;;;27.15;39.83;99810.03;5134349;27;8833;-62
2022/07/29 11:48:36;;;;;;;;;6.20;6.00;;;;;27.66;39.12;99804.84;5134134;27;8822;-61
2022/07/29 11:51:04;;;;;;;;;7.00;4.60;;;;;28.13;38.37;99818.38;5112006;27;8828;-62
2022/07/29 11:53:32;;;;;;;;;6.60;5.60;;;;;28.67;37.80;99819.94;5115862;27;8822;-63
2022/07/29 11:56:01;;;;;;;;;6.20;6.20;;;;;29.23;37.42;99809.06;5127822;27;8824;-62
2022/07/29 11:58:48;;;;;;;;;5.20;5.20;;;;;30.20;35.93;99795.72;5123824;27;8822;-63
2022/07/29 12:01:17;;;;;;;;;5.00;4.00;;;;;30.85;35.02;99791.97;5114330;27;8917;-62